createdAt,value
2024-03-08T00:00:04.736Z,0.51
2024-03-08T00:01:04.875Z,0.50
2024-03-08T00:02:05.078Z,0.52
2024-03-08T00:03:05.278Z,0.51
2024-03-08T00:04:05.440Z,0.50
2024-03-08T00:05:05.636Z,0.50
2024-03-08T00:06:05.894Z,0.52
2024-03-08T00:07:06.035Z,0.50
2024-03-08T00:08:06.232Z,0.52
2024-03-08T00:09:06.480Z,0.51
2024-03-08T00:10:06.642Z,0.51
2024-03-08T00:11:06.875Z,0.50
2024-03-08T00:12:07.091Z,0.51
2024-03-08T00:13:07.258Z,0.51
2024-03-08T00:14:07.476Z,0.50
2024-03-08T00:15:07.745Z,0.51
2024-03-08T00:16:07.898Z,0.52
2024-03-08T00:17:08.135Z,0.52
2024-03-08T00:18:08.474Z,0.52
2024-03-08T00:19:08.530Z,0.53
2024-03-08T00:20:08.821Z,0.55
2024-03-08T00:21:09.059Z,0.55
2024-03-08T00:22:09.223Z,0.57
2024-03-08T00:23:09.421Z,0.56
2024-03-08T00:24:09.670Z,0.57
2024-03-08T00:25:10.091Z,0.59
2024-03-08T00:26:09.821Z,0.59
2024-03-08T00:27:09.973Z,0.59
2024-03-08T00:28:09.820Z,0.61
2024-03-08T00:29:09.808Z,0.64
2024-03-08T00:30:09.910Z,0.64
2024-03-08T00:31:09.794Z,0.65
2024-03-08T00:32:09.806Z,0.67
2024-03-08T00:33:09.838Z,0.67
2024-03-08T00:34:09.855Z,0.64
2024-03-08T00:35:09.981Z,0.63
2024-03-08T00:36:10.077Z,0.62
2024-03-08T00:37:10.028Z,0.59
2024-03-08T00:38:10.104Z,0.56
2024-03-08T00:39:10.128Z,0.58
2024-03-08T00:40:10.559Z,0.54
2024-03-08T00:41:10.210Z,0.55
2024-03-08T00:42:10.304Z,0.55
2024-03-08T00:43:10.321Z,0.55
2024-03-08T00:44:10.333Z,0.55
2024-03-08T00:45:10.465Z,0.58
2024-03-08T00:46:10.420Z,0.62
2024-03-08T00:47:10.646Z,0.65
2024-03-08T00:48:10.924Z,0.59
2024-03-08T00:49:11.029Z,0.59
2024-03-08T00:50:11.221Z,0.57
2024-03-08T00:51:11.442Z,0.56
2024-03-08T00:52:11.646Z,0.56
2024-03-08T00:53:11.807Z,0.58
2024-03-08T00:54:12.095Z,0.55
2024-03-08T00:55:12.179Z,0.53
2024-03-08T00:56:12.453Z,0.52
2024-03-08T00:57:12.747Z,0.54
2024-03-08T00:58:12.793Z,0.50
2024-03-08T00:59:13.025Z,0.50
2024-03-08T01:00:13.537Z,0.50
2024-03-08T01:01:13.267Z,0.51
2024-03-08T01:02:13.297Z,0.55
2024-03-08T01:03:13.479Z,0.59
2024-03-08T01:04:13.431Z,0.59
2024-03-08T01:05:13.477Z,0.60
2024-03-08T01:06:13.556Z,0.63
2024-03-08T01:07:13.595Z,0.64
2024-03-08T01:08:13.686Z,0.65
2024-03-08T01:09:13.764Z,0.66
2024-03-08T01:10:13.799Z,0.61
2024-03-08T01:11:13.873Z,0.58
2024-03-08T01:12:13.928Z,0.55
2024-03-08T01:13:13.887Z,0.51
2024-03-08T01:14:13.912Z,0.50
2024-03-08T01:15:13.980Z,0.49
2024-03-08T01:16:16.807Z,0.49
2024-03-08T01:17:13.972Z,0.50
2024-03-08T01:18:13.977Z,0.50
2024-03-08T01:19:13.990Z,0.50
2024-03-08T01:20:13.976Z,0.50
2024-03-08T01:21:13.946Z,0.50
2024-03-08T01:22:13.921Z,0.51
2024-03-08T01:23:13.935Z,0.50
2024-03-08T01:24:13.944Z,0.51
2024-03-08T01:25:13.932Z,0.50
2024-03-08T01:26:13.937Z,0.50
2024-03-08T01:27:13.987Z,0.51
2024-03-08T01:28:13.956Z,0.51
2024-03-08T01:29:13.946Z,0.51
2024-03-08T01:30:14.087Z,0.51
2024-03-08T01:31:13.953Z,0.50
2024-03-08T01:32:13.940Z,0.52
2024-03-08T01:33:14.058Z,0.54
2024-03-08T01:34:13.944Z,0.54
2024-03-08T01:35:13.966Z,0.54
2024-03-08T01:36:14.002Z,0.53
2024-03-08T01:37:13.990Z,0.50
2024-03-08T01:38:13.982Z,0.51
2024-03-08T01:39:14.064Z,0.50
2024-03-08T01:40:13.989Z,0.50
2024-03-08T01:41:13.977Z,0.51
2024-03-08T01:42:14.123Z,0.53
2024-03-08T01:43:13.980Z,0.51
2024-03-08T01:44:13.974Z,0.51
2024-03-08T01:45:13.986Z,0.50
2024-03-08T01:46:13.975Z,0.51
2024-03-08T01:47:13.989Z,0.50
2024-03-08T01:48:14.078Z,0.51
2024-03-08T01:49:14.000Z,0.50
2024-03-08T01:50:14.019Z,0.52
2024-03-08T01:51:14.100Z,0.50
2024-03-08T01:52:14.001Z,0.51
2024-03-08T01:53:14.024Z,0.52
2024-03-08T01:54:14.112Z,0.52
2024-03-08T01:55:14.177Z,0.51
2024-03-08T01:56:14.194Z,0.52
2024-03-08T01:57:14.186Z,0.54
2024-03-08T01:58:14.133Z,0.54
2024-03-08T01:59:14.143Z,0.57
2024-03-08T02:00:14.311Z,0.59
2024-03-08T02:01:14.205Z,0.60
2024-03-08T02:02:14.200Z,0.59
2024-03-08T02:03:14.252Z,0.63
2024-03-08T02:04:14.199Z,0.64
2024-03-08T02:05:14.222Z,0.67
2024-03-08T02:06:14.294Z,0.69
2024-03-08T02:07:14.246Z,0.71
2024-03-08T02:08:14.226Z,0.73
2024-03-08T02:09:14.289Z,0.74
2024-03-08T02:10:14.225Z,0.75
2024-03-08T02:11:14.385Z,0.73
2024-03-08T02:12:14.283Z,0.75
2024-03-08T02:13:14.230Z,0.74
2024-03-08T02:14:14.209Z,0.75
2024-03-08T02:15:14.315Z,0.73
2024-03-08T02:16:14.303Z,0.72
2024-03-08T02:17:14.469Z,0.69
2024-03-08T02:18:14.508Z,0.65
2024-03-08T02:19:14.437Z,0.64
2024-03-08T02:20:14.761Z,0.66
2024-03-08T02:21:14.473Z,0.61
2024-03-08T02:22:14.478Z,0.60
2024-03-08T02:23:14.496Z,0.56
2024-03-08T02:24:14.565Z,0.53
2024-03-08T02:25:14.525Z,0.52
2024-03-08T02:26:14.538Z,0.51
2024-03-08T02:27:14.561Z,0.51
2024-03-08T02:28:14.544Z,0.51
2024-03-08T02:29:14.578Z,0.50
2024-03-08T02:30:14.684Z,0.52
2024-03-08T02:31:14.607Z,0.50
2024-03-08T02:32:14.649Z,0.52
2024-03-08T02:33:14.752Z,0.53
2024-03-08T02:34:14.727Z,0.52
2024-03-08T02:35:14.779Z,0.51
2024-03-08T02:36:14.927Z,0.52
2024-03-08T02:37:14.868Z,0.51
2024-03-08T02:38:14.918Z,0.52
2024-03-08T02:39:15.021Z,0.53
2024-03-08T02:40:15.039Z,0.54
2024-03-08T02:41:15.084Z,0.54
2024-03-08T02:42:15.249Z,0.54
2024-03-08T02:43:15.190Z,0.56
2024-03-08T02:44:15.274Z,0.58
2024-03-08T02:45:15.387Z,0.60
2024-03-08T02:46:15.418Z,0.61
2024-03-08T02:47:15.475Z,0.61
2024-03-08T02:48:15.689Z,0.60
2024-03-08T02:49:15.615Z,0.56
2024-03-08T02:50:15.664Z,0.53
2024-03-08T02:51:15.772Z,0.53
2024-03-08T02:52:15.776Z,0.53
2024-03-08T02:53:15.921Z,0.52
2024-03-08T02:54:16.009Z,0.50
2024-03-08T02:55:16.016Z,0.49
2024-03-08T02:56:16.083Z,0.51
2024-03-08T02:57:16.190Z,0.50
2024-03-08T02:58:16.460Z,0.50
2024-03-08T02:59:16.328Z,0.50
2024-03-08T03:00:16.461Z,0.50
2024-03-08T03:01:16.499Z,0.50
2024-03-08T03:02:16.563Z,0.50
2024-03-08T03:03:16.724Z,0.50
2024-03-08T03:04:16.698Z,0.49
2024-03-08T03:05:16.750Z,0.50
2024-03-08T03:06:16.864Z,0.50
2024-03-08T03:07:16.992Z,0.50
2024-03-08T03:08:17.253Z,0.49
2024-03-08T03:09:17.538Z,0.50
2024-03-08T03:10:17.734Z,0.50
2024-03-08T03:11:18.006Z,0.51
2024-03-08T03:12:18.220Z,0.50
2024-03-08T03:13:18.466Z,0.51
2024-03-08T03:14:18.714Z,0.51
2024-03-08T03:15:19.031Z,0.51
2024-03-08T03:16:19.185Z,0.51
2024-03-08T03:17:19.500Z,0.52
2024-03-08T03:18:19.784Z,0.51
2024-03-08T03:19:19.806Z,0.50
2024-03-08T03:20:20.099Z,0.49
2024-03-08T03:21:20.337Z,0.50
2024-03-08T03:22:20.552Z,0.54
2024-03-08T03:23:20.763Z,0.52
2024-03-08T03:24:21.001Z,0.57
2024-03-08T03:25:21.270Z,0.57
2024-03-08T03:26:21.538Z,0.55
2024-03-08T03:27:21.814Z,0.54
2024-03-08T03:28:21.989Z,0.52
2024-03-08T03:29:22.247Z,0.52
2024-03-08T03:30:22.906Z,0.50
2024-03-08T03:31:22.579Z,0.52
2024-03-08T03:32:22.696Z,0.50
2024-03-08T03:33:22.764Z,0.50
2024-03-08T03:34:22.810Z,0.50
2024-03-08T03:35:22.940Z,0.50
2024-03-08T03:36:22.946Z,0.51
2024-03-08T03:37:23.033Z,0.51
2024-03-08T03:38:23.107Z,0.51
2024-03-08T03:39:23.225Z,0.54
2024-03-08T03:40:23.297Z,0.54
2024-03-08T03:41:23.380Z,0.56
2024-03-08T03:42:23.512Z,0.56
2024-03-08T03:43:23.563Z,0.55
2024-03-08T03:44:23.628Z,0.57
2024-03-08T03:45:23.745Z,0.59
2024-03-08T03:46:23.905Z,0.59
2024-03-08T03:47:24.313Z,0.62
2024-03-08T03:48:24.425Z,0.61
2024-03-08T03:49:24.690Z,0.62
2024-03-08T03:50:24.956Z,0.63
2024-03-08T03:51:25.203Z,0.65
2024-03-08T03:52:25.492Z,0.68
2024-03-08T03:53:25.682Z,0.75
2024-03-08T03:54:25.930Z,0.91
2024-03-08T03:55:26.168Z,1.07
2024-03-08T03:56:26.405Z,1.40
2024-03-08T03:57:26.684Z,1.89
2024-03-08T03:58:26.926Z,2.27
2024-03-08T03:59:27.159Z,2.45
2024-03-08T04:00:27.446Z,2.56
2024-03-08T04:01:27.730Z,2.43
2024-03-08T04:02:28.083Z,2.57
2024-03-08T04:03:28.106Z,2.62
2024-03-08T04:04:28.419Z,2.53
2024-03-08T04:05:28.731Z,2.42
2024-03-08T04:06:28.973Z,2.20
2024-03-08T04:07:29.193Z,2.07
2024-03-08T04:08:29.471Z,1.98
2024-03-08T04:09:29.708Z,2.05
2024-03-08T04:10:29.921Z,1.92
2024-03-08T04:11:30.162Z,1.82
2024-03-08T04:12:30.393Z,1.69
2024-03-08T04:13:30.565Z,1.60
2024-03-08T04:14:30.759Z,1.57
2024-03-08T04:15:30.929Z,1.41
2024-03-08T04:16:31.220Z,1.34
2024-03-08T04:17:31.501Z,1.22
2024-03-08T04:18:31.612Z,1.19
2024-03-08T04:19:31.833Z,1.10
2024-03-08T04:20:32.085Z,1.04
2024-03-08T04:21:32.226Z,1.02
2024-03-08T04:22:32.446Z,1.00
2024-03-08T04:23:32.690Z,0.91
2024-03-08T04:24:32.878Z,0.86
2024-03-08T04:25:33.084Z,0.87
2024-03-08T04:26:33.330Z,0.88
2024-03-08T04:27:33.621Z,0.86
2024-03-08T04:28:33.784Z,0.86
2024-03-08T04:29:34.158Z,0.83
2024-03-08T04:30:34.310Z,0.83
2024-03-08T04:31:34.582Z,0.88
2024-03-08T04:32:34.937Z,0.87
2024-03-08T04:33:35.985Z,0.82
2024-03-08T04:34:35.183Z,0.76
2024-03-08T04:35:35.182Z,0.76
2024-03-08T04:36:35.206Z,0.78
2024-03-08T04:37:35.242Z,0.76
2024-03-08T04:38:35.297Z,0.77
2024-03-08T04:39:35.386Z,0.71
2024-03-08T04:40:35.379Z,0.70
2024-03-08T04:41:35.595Z,0.71
2024-03-08T04:42:35.572Z,0.74
2024-03-08T04:43:35.638Z,0.79
2024-03-08T04:44:43.648Z,0.50
2024-03-08T04:45:43.904Z,0.50
2024-03-08T04:46:44.153Z,0.50
2024-03-08T04:47:44.454Z,0.50
2024-03-08T04:48:44.698Z,0.50
2024-03-08T04:49:44.826Z,0.52
2024-03-08T04:50:45.150Z,0.55
2024-03-08T04:51:45.368Z,0.60
2024-03-08T04:52:45.540Z,0.63
2024-03-08T04:53:45.809Z,0.66
2024-03-08T04:54:45.920Z,0.67
2024-03-08T04:55:46.156Z,0.66
2024-03-08T04:56:46.470Z,0.64
2024-03-08T04:57:46.637Z,0.67
2024-03-08T04:58:46.916Z,0.72
2024-03-08T04:59:47.266Z,0.91
2024-03-08T05:00:47.445Z,1.33
2024-03-08T05:01:47.717Z,1.67
2024-03-08T05:02:47.983Z,1.76
2024-03-08T05:03:48.232Z,1.64
2024-03-08T05:04:48.466Z,1.65
2024-03-08T05:05:48.794Z,1.74
2024-03-08T05:06:49.032Z,1.71
2024-03-08T05:07:49.303Z,1.52
2024-03-08T05:08:49.613Z,1.31
2024-03-08T05:09:49.857Z,1.18
2024-03-08T05:10:50.141Z,1.09
2024-03-08T05:11:50.390Z,1.00
2024-03-08T05:12:50.501Z,0.89
2024-03-08T05:13:50.511Z,0.80
2024-03-08T05:14:50.600Z,0.68
2024-03-08T05:15:50.639Z,0.59
2024-03-08T05:16:50.675Z,0.52
2024-03-08T05:17:50.776Z,0.50
2024-03-08T05:18:50.883Z,0.52
2024-03-08T05:19:50.896Z,0.51
2024-03-08T05:20:50.919Z,0.50
2024-03-08T05:21:51.276Z,0.50
2024-03-08T05:22:51.017Z,0.50
2024-03-08T05:23:51.083Z,0.50
2024-03-08T05:24:51.117Z,0.50
2024-03-08T05:25:51.194Z,0.54
2024-03-08T05:26:51.309Z,0.60
2024-03-08T05:27:51.305Z,0.63
2024-03-08T05:28:51.373Z,0.65
2024-03-08T05:29:51.495Z,0.67
2024-03-08T05:30:51.472Z,0.68
2024-03-08T05:31:51.656Z,0.67
2024-03-08T05:32:51.654Z,0.69
2024-03-08T05:33:51.778Z,0.70
2024-03-08T05:34:51.687Z,0.68
2024-03-08T05:35:51.771Z,0.68
2024-03-08T05:36:52.192Z,0.67
2024-03-08T05:37:51.909Z,0.68
2024-03-08T05:38:52.049Z,0.69
2024-03-08T05:39:52.058Z,0.69
2024-03-08T05:40:52.156Z,0.66
2024-03-08T05:41:52.312Z,0.67
2024-03-08T05:42:52.261Z,0.67
2024-03-08T05:43:52.330Z,0.69
2024-03-08T05:44:52.401Z,0.70
2024-03-08T05:45:52.446Z,0.77
2024-03-08T05:46:52.484Z,0.86
2024-03-08T05:47:52.618Z,0.88
2024-03-08T05:48:52.736Z,0.86
2024-03-08T05:49:52.630Z,0.84
2024-03-08T05:50:52.717Z,0.77
2024-03-08T05:51:52.730Z,0.70
2024-03-08T05:52:52.774Z,0.65
2024-03-08T05:53:52.868Z,0.61
2024-03-08T05:54:52.881Z,0.57
2024-03-08T05:55:52.940Z,0.54
2024-03-08T05:56:53.050Z,0.52
2024-03-08T05:57:53.105Z,0.50
2024-03-08T05:58:53.204Z,0.50
2024-03-08T05:59:53.353Z,0.50
2024-03-08T06:00:54.033Z,0.50
2024-03-08T06:01:53.508Z,0.50
2024-03-08T06:02:53.593Z,0.53
2024-03-08T06:03:53.637Z,0.52
2024-03-08T06:04:53.740Z,0.52
2024-03-08T06:05:53.845Z,0.54
2024-03-08T06:06:53.907Z,0.51
2024-03-08T06:07:53.980Z,0.51
2024-03-08T06:08:54.196Z,0.50
2024-03-08T06:09:54.187Z,0.52
2024-03-08T06:10:54.300Z,0.52
2024-03-08T06:11:54.468Z,0.56
2024-03-08T06:12:54.410Z,0.59
2024-03-08T06:13:54.487Z,0.62
2024-03-08T06:14:54.667Z,0.62
2024-03-08T06:15:54.700Z,0.63
2024-03-08T06:16:54.816Z,0.63
2024-03-08T06:17:55.043Z,0.62
2024-03-08T06:18:55.090Z,0.63
2024-03-08T06:19:55.119Z,0.67
2024-03-08T06:20:56.531Z,0.64
2024-03-08T06:21:55.293Z,0.62
2024-03-08T06:22:55.384Z,0.62
2024-03-08T06:23:55.544Z,0.62
2024-03-08T06:24:55.684Z,0.64
2024-03-08T06:25:55.885Z,0.66
2024-03-08T06:26:55.930Z,0.73
2024-03-08T06:27:56.050Z,1.01
2024-03-08T06:28:57.057Z,1.84
2024-03-08T06:29:56.347Z,3.44
2024-03-08T06:30:56.473Z,5.40
2024-03-08T06:31:57.574Z,6.67
2024-03-08T06:32:56.903Z,8.73
2024-03-08T06:33:57.629Z,10.55
2024-03-08T06:34:57.084Z,12.61
2024-03-08T06:35:57.489Z,17.05
2024-03-08T06:36:59.974Z,19.87
2024-03-08T06:37:58.560Z,16.32
2024-03-08T06:38:57.903Z,12.27
2024-03-08T06:39:58.035Z,9.67
2024-03-08T06:40:58.110Z,8.49
2024-03-08T06:41:58.338Z,7.44
2024-03-08T06:42:58.397Z,6.44
2024-03-08T06:43:58.653Z,6.27
2024-03-08T06:44:59.990Z,5.69
2024-03-08T06:45:58.813Z,4.72
2024-03-08T06:47:00.934Z,4.29
2024-03-08T06:47:59.178Z,3.68
2024-03-08T06:48:59.322Z,3.15
2024-03-08T06:49:59.313Z,2.86
2024-03-08T06:50:59.448Z,2.68
2024-03-08T06:51:59.656Z,2.55
2024-03-08T06:52:59.678Z,2.42
2024-03-08T06:53:59.799Z,2.37
2024-03-08T06:55:00.485Z,2.41
2024-03-08T06:55:59.996Z,2.33
2024-03-08T06:57:00.169Z,2.31
2024-03-08T06:58:00.272Z,2.49
2024-03-08T06:59:00.403Z,2.77
2024-03-08T07:00:00.652Z,3.38
2024-03-08T07:01:00.641Z,4.43
2024-03-08T07:02:00.652Z,6.23
2024-03-08T07:03:00.755Z,7.60
2024-03-08T07:04:00.948Z,7.66
2024-03-08T07:05:00.997Z,6.88
2024-03-08T07:06:02.084Z,6.88
2024-03-08T07:07:02.104Z,7.85
2024-03-08T07:08:02.478Z,8.74
2024-03-08T07:09:01.787Z,8.33
2024-03-08T07:10:01.852Z,6.85
2024-03-08T07:11:01.920Z,5.81
2024-03-08T07:12:02.079Z,4.91
2024-03-08T07:13:02.150Z,4.81
2024-03-08T07:14:02.257Z,4.59
2024-03-08T07:15:02.427Z,3.89
2024-03-08T07:16:02.788Z,3.46
2024-03-08T07:17:04.127Z,3.23
2024-03-08T07:18:02.661Z,3.41
2024-03-08T07:19:02.904Z,3.48
2024-03-08T07:20:02.864Z,3.57
2024-03-08T07:21:02.922Z,3.75
2024-03-08T07:22:02.846Z,3.83
2024-03-08T07:23:02.911Z,4.01
2024-03-08T07:24:03.049Z,4.33
2024-03-08T07:25:03.566Z,4.43
2024-03-08T07:26:03.116Z,4.11
2024-03-08T07:27:03.311Z,3.40
2024-03-08T07:28:03.305Z,2.96
2024-03-08T07:29:03.338Z,2.68
2024-03-08T07:31:03.479Z,2.59
2024-03-08T07:32:03.523Z,2.47
2024-03-08T07:33:03.743Z,2.25
2024-03-08T07:34:03.591Z,1.87
2024-03-08T07:35:03.668Z,1.80
2024-03-08T07:36:04.581Z,1.62
2024-03-08T07:37:06.054Z,1.50
2024-03-08T07:38:03.885Z,1.50
2024-03-08T07:39:05.529Z,1.51
2024-03-08T07:40:04.047Z,1.36
2024-03-08T07:41:05.864Z,1.22
2024-03-08T07:42:04.172Z,1.23
2024-03-08T07:43:04.056Z,1.34
2024-03-08T07:44:04.113Z,1.24
2024-03-08T07:45:04.296Z,0.86
2024-03-08T07:46:04.191Z,0.71
2024-03-08T07:47:04.241Z,0.69
2024-03-08T07:48:04.745Z,0.70
2024-03-08T07:49:04.426Z,0.65
2024-03-08T07:50:05.373Z,0.54
2024-03-08T07:51:04.568Z,0.51
2024-03-08T07:52:04.549Z,0.51
2024-03-08T07:53:04.571Z,0.54
2024-03-08T07:54:04.608Z,0.55
2024-03-08T07:55:05.576Z,0.56
2024-03-08T07:56:04.666Z,0.70
2024-03-08T07:57:04.679Z,0.80
2024-03-08T07:58:04.790Z,0.78
2024-03-08T07:59:04.797Z,0.69
2024-03-08T08:00:04.828Z,0.66
2024-03-08T08:01:04.887Z,0.64
2024-03-08T08:02:04.978Z,0.64
2024-03-08T08:03:05.017Z,0.59
2024-03-08T08:04:05.073Z,0.57
2024-03-08T08:05:05.102Z,0.59
2024-03-08T08:06:05.184Z,0.58
2024-03-08T08:07:05.203Z,0.60
2024-03-08T08:08:05.260Z,0.57
2024-03-08T08:09:05.317Z,0.56
2024-03-08T08:10:05.352Z,0.54
2024-03-08T08:11:05.443Z,0.52
2024-03-08T08:12:05.367Z,0.55
2024-03-08T08:13:05.737Z,0.53
2024-03-08T08:14:05.460Z,0.56
2024-03-08T08:15:06.080Z,0.60
2024-03-08T08:16:05.560Z,0.62
2024-03-08T08:17:05.697Z,0.63
2024-03-08T08:18:05.586Z,0.68
2024-03-08T08:19:05.633Z,0.81
2024-03-08T08:20:05.693Z,0.75
2024-03-08T08:21:05.758Z,0.83
2024-03-08T08:22:05.800Z,0.86
2024-03-08T08:23:06.808Z,0.87
2024-03-08T08:24:05.771Z,0.91
2024-03-08T08:25:05.792Z,1.03
2024-03-08T08:26:05.927Z,1.76
2024-03-08T08:27:05.728Z,6.39
2024-03-08T08:28:06.044Z,11.44
2024-03-08T08:29:05.709Z,15.09
2024-03-08T08:30:05.718Z,16.06
2024-03-08T08:31:05.709Z,15.77
2024-03-08T08:32:05.723Z,13.22
2024-03-08T08:33:05.783Z,11.93
2024-03-08T08:34:05.825Z,9.31
2024-03-08T08:35:05.828Z,8.87
2024-03-08T08:36:05.837Z,10.09
2024-03-08T08:37:05.862Z,11.66
2024-03-08T08:38:05.995Z,13.45
2024-03-08T08:39:06.229Z,13.82
2024-03-08T08:40:06.538Z,13.89
2024-03-08T08:41:06.716Z,14.79
2024-03-08T08:42:06.816Z,15.77
2024-03-08T08:43:07.011Z,16.17
2024-03-08T08:44:15.074Z,16.79
2024-03-08T08:45:14.947Z,16.86
2024-03-08T08:46:08.133Z,16.97
2024-03-08T08:47:12.754Z,17.85
2024-03-08T08:48:08.231Z,17.09
2024-03-08T08:49:07.086Z,18.03
2024-03-08T08:50:07.097Z,18.75
2024-03-08T08:51:07.061Z,18.33
2024-03-08T08:52:12.605Z,16.80
2024-03-08T08:53:08.221Z,16.36
2024-03-08T08:54:09.652Z,14.80
2024-03-08T08:55:07.019Z,14.38
2024-03-08T08:56:06.981Z,12.79
2024-03-08T08:57:06.970Z,10.88
2024-03-08T08:58:06.961Z,10.31
2024-03-08T08:59:06.928Z,10.08
2024-03-08T09:00:06.899Z,10.13
2024-03-08T09:01:06.897Z,10.52
2024-03-08T09:02:06.991Z,12.98
2024-03-08T09:03:06.883Z,12.33
2024-03-08T09:04:06.870Z,12.76
2024-03-08T09:05:06.921Z,11.79
2024-03-08T09:06:06.817Z,12.42
2024-03-08T09:07:06.783Z,14.28
2024-03-08T09:08:07.009Z,18.64
2024-03-08T09:09:07.276Z,20.96
2024-03-08T09:11:07.640Z,19.21
2024-03-08T09:12:06.779Z,20.46
2024-03-08T09:13:06.753Z,20.54
2024-03-08T09:14:06.751Z,21.26
2024-03-08T09:15:06.746Z,16.96
2024-03-08T09:16:06.684Z,14.79
2024-03-08T09:17:07.510Z,14.37
2024-03-08T09:18:06.692Z,13.75
2024-03-08T09:19:06.742Z,12.80
2024-03-08T09:20:06.572Z,11.07
2024-03-08T09:21:06.559Z,10.53
2024-03-08T09:22:06.553Z,10.10
2024-03-08T09:23:06.525Z,9.00
2024-03-08T09:24:06.505Z,6.83
2024-03-08T09:25:06.647Z,6.04
2024-03-08T09:27:06.453Z,4.43
2024-03-08T09:28:07.395Z,4.43
2024-03-08T09:29:06.387Z,4.26
2024-03-08T09:30:06.414Z,3.88
2024-03-08T09:31:06.349Z,3.67
2024-03-08T09:32:06.324Z,3.43
2024-03-08T09:33:06.303Z,3.04
2024-03-08T09:34:06.309Z,2.59
2024-03-08T09:35:06.310Z,2.41
2024-03-08T09:36:06.295Z,2.05
2024-03-08T09:37:06.353Z,1.72
2024-03-08T09:38:06.258Z,1.68
2024-03-08T09:39:06.427Z,1.58
2024-03-08T09:40:06.669Z,1.42
2024-03-08T09:41:06.867Z,1.46
2024-03-08T09:42:07.050Z,1.67
2024-03-08T09:43:07.236Z,1.70
2024-03-08T09:44:07.465Z,1.69
2024-03-08T09:45:07.675Z,1.61
2024-03-08T09:46:07.941Z,1.45
2024-03-08T09:47:08.043Z,1.34
2024-03-08T09:48:08.192Z,1.31
2024-03-08T09:49:08.511Z,1.29
2024-03-08T09:50:08.706Z,1.37
2024-03-08T09:51:08.899Z,1.30
2024-03-08T09:52:09.108Z,1.31
2024-03-08T09:53:09.310Z,1.31
2024-03-08T09:54:14.774Z,1.16
2024-03-08T09:55:10.436Z,1.07
2024-03-08T09:56:09.395Z,0.96
2024-03-08T09:57:09.369Z,0.91
2024-03-08T09:58:09.331Z,0.93
2024-03-08T09:59:09.326Z,0.92
2024-03-08T10:00:09.327Z,0.90
2024-03-08T10:01:09.319Z,0.96
2024-03-08T10:02:10.036Z,0.96
2024-03-08T10:03:09.251Z,0.90
2024-03-08T10:04:09.289Z,0.84
2024-03-08T10:05:09.307Z,0.87
2024-03-08T10:06:09.330Z,0.82
2024-03-08T10:07:09.391Z,0.80
2024-03-08T10:08:09.433Z,0.92
2024-03-08T10:09:09.415Z,0.96
2024-03-08T10:10:09.394Z,0.93
2024-03-08T10:11:09.478Z,0.98
2024-03-08T10:12:09.410Z,0.99
2024-03-08T10:13:09.381Z,1.09
2024-03-08T10:14:09.364Z,1.15
2024-03-08T10:15:09.312Z,1.16
2024-03-08T10:16:09.342Z,1.16
2024-03-08T10:17:09.348Z,1.16
2024-03-08T10:18:10.627Z,0.91
2024-03-08T10:19:09.384Z,0.77
2024-03-08T10:20:09.473Z,0.63
2024-03-08T10:21:09.402Z,0.57
2024-03-08T10:22:09.378Z,0.50
2024-03-08T10:23:11.605Z,0.50
2024-03-08T10:24:10.018Z,0.50
2024-03-08T10:25:09.341Z,0.50
2024-03-08T10:26:09.323Z,0.51
2024-03-08T10:27:09.196Z,0.55
2024-03-08T10:28:09.152Z,0.60
2024-03-08T10:29:09.102Z,0.65
2024-03-08T10:30:09.082Z,0.78
2024-03-08T10:31:09.107Z,0.93
2024-03-08T10:32:09.058Z,1.01
2024-03-08T10:33:09.166Z,1.10
2024-03-08T10:34:08.908Z,1.25
2024-03-08T10:35:08.971Z,1.34
2024-03-08T10:36:08.816Z,1.46
2024-03-08T10:37:08.976Z,1.53
2024-03-08T10:38:08.963Z,1.55
2024-03-08T10:39:08.730Z,1.85
2024-03-08T10:40:08.660Z,2.13
2024-03-08T10:41:08.875Z,1.90
2024-03-08T10:42:08.571Z,1.61
2024-03-08T10:43:08.572Z,1.25
2024-03-08T10:44:08.760Z,0.98
2024-03-08T10:45:08.475Z,0.87
2024-03-08T10:46:08.446Z,0.98
2024-03-08T10:47:08.380Z,0.96
2024-03-08T10:48:08.332Z,0.80
2024-03-08T10:49:08.265Z,0.74
2024-03-08T10:50:08.361Z,0.66
2024-03-08T10:51:08.329Z,0.63
2024-03-08T10:52:08.527Z,0.67
2024-03-08T10:53:08.772Z,0.68
2024-03-08T10:54:08.898Z,0.74
2024-03-08T10:55:09.108Z,0.85
2024-03-08T10:56:09.382Z,1.03
2024-03-08T10:57:09.501Z,1.17
2024-03-08T10:58:09.692Z,1.30
2024-03-08T10:59:09.960Z,1.35
2024-03-08T11:00:10.053Z,1.35
2024-03-08T11:01:10.462Z,1.43
2024-03-08T11:02:10.483Z,1.45
2024-03-08T11:03:10.635Z,1.53
2024-03-08T11:04:10.911Z,1.60
2024-03-08T11:05:11.063Z,1.58
2024-03-08T11:06:11.365Z,1.55
2024-03-08T11:07:11.481Z,1.35
2024-03-08T11:08:11.693Z,1.26
2024-03-08T11:09:11.919Z,1.27
2024-03-08T11:10:12.056Z,1.37
2024-03-08T11:11:12.340Z,1.56
2024-03-08T11:12:12.443Z,1.53
2024-03-08T11:13:12.620Z,1.51
2024-03-08T11:14:12.817Z,1.42
2024-03-08T11:15:12.987Z,1.52
2024-03-08T11:16:13.251Z,1.55
2024-03-08T11:17:14.367Z,1.54
2024-03-08T11:18:13.276Z,1.62
2024-03-08T11:19:13.246Z,1.60
2024-03-08T11:20:13.232Z,1.45
2024-03-08T11:21:13.395Z,1.31
2024-03-08T11:22:13.264Z,1.34
2024-03-08T11:23:13.244Z,1.31
2024-03-08T11:24:13.221Z,1.19
2024-03-08T11:25:13.237Z,1.11
2024-03-08T11:26:13.235Z,1.19
2024-03-08T11:27:13.238Z,1.29
2024-03-08T11:28:13.135Z,1.37
2024-03-08T11:29:13.101Z,1.20
2024-03-08T11:30:17.149Z,1.08
2024-03-08T11:31:14.067Z,1.04
2024-03-08T11:32:13.065Z,1.02
2024-03-08T11:33:13.042Z,0.99
2024-03-08T11:34:12.971Z,0.92
2024-03-08T11:35:12.885Z,0.91
2024-03-08T11:36:13.061Z,0.89
2024-03-08T11:37:12.791Z,0.78
2024-03-08T11:38:12.772Z,0.73
2024-03-08T11:39:12.656Z,0.71
2024-03-08T11:40:12.606Z,0.70
2024-03-08T11:41:14.691Z,0.69
2024-03-08T11:42:12.533Z,0.70
2024-03-08T11:43:12.411Z,0.72
2024-03-08T11:44:12.332Z,0.75
2024-03-08T11:45:12.269Z,0.79
2024-03-08T11:46:12.246Z,0.76
2024-03-08T11:47:12.224Z,0.71
2024-03-08T11:48:12.248Z,0.69
2024-03-08T11:49:12.106Z,0.67
2024-03-08T11:50:12.066Z,0.68
2024-03-08T11:51:12.003Z,0.72
2024-03-08T11:52:11.942Z,0.85
2024-03-08T11:53:11.923Z,0.88
2024-03-08T11:54:11.762Z,0.77
2024-03-08T11:55:11.693Z,0.72
2024-03-08T11:56:11.765Z,0.66
2024-03-08T11:57:11.564Z,0.63
2024-03-08T11:58:11.573Z,0.68
2024-03-08T11:59:11.391Z,0.71
2024-03-08T12:00:11.311Z,0.68
2024-03-08T12:01:11.233Z,0.80
2024-03-08T12:02:11.273Z,0.81
2024-03-08T12:03:11.096Z,0.78
2024-03-08T12:04:11.049Z,0.69
2024-03-08T12:05:10.940Z,0.68
2024-03-08T12:06:10.902Z,0.59
2024-03-08T12:07:10.821Z,0.57
2024-03-08T12:08:10.748Z,0.52
2024-03-08T12:09:10.666Z,0.55
2024-03-08T12:10:10.630Z,0.50
2024-03-08T12:11:10.550Z,0.50
2024-03-08T12:12:10.473Z,0.49
2024-03-08T12:13:10.348Z,0.51
2024-03-08T12:14:11.126Z,0.49
2024-03-08T12:15:10.217Z,0.50
2024-03-08T12:16:10.174Z,0.50
2024-03-08T12:17:12.786Z,0.49
2024-03-08T12:18:10.039Z,0.50
2024-03-08T12:19:09.879Z,0.50
2024-03-08T12:20:09.788Z,0.50
2024-03-08T12:21:09.730Z,0.50
2024-03-08T12:22:09.693Z,0.53
2024-03-08T12:23:09.505Z,0.59
2024-03-08T12:24:09.477Z,0.52
2024-03-08T12:25:09.317Z,0.50
2024-03-08T12:26:10.171Z,0.50
2024-03-08T12:27:09.157Z,0.48
2024-03-08T12:28:09.049Z,0.43
2024-03-08T12:29:09.085Z,0.42
2024-03-08T12:30:08.867Z,0.43
2024-03-08T12:31:08.788Z,0.40
2024-03-08T12:32:08.777Z,0.35
2024-03-08T12:33:08.654Z,0.40
2024-03-08T12:34:08.532Z,0.48
2024-03-08T12:35:08.435Z,0.57
2024-03-08T12:36:08.339Z,0.59
2024-03-08T12:37:08.246Z,0.56
2024-03-08T12:38:08.136Z,0.55
2024-03-08T12:39:08.013Z,0.60
2024-03-08T12:40:07.903Z,0.58
2024-03-08T12:41:07.856Z,0.52
2024-03-08T12:42:07.731Z,0.51
2024-03-08T12:43:07.649Z,0.58
2024-03-08T12:44:07.561Z,0.61
2024-03-08T12:45:07.434Z,0.61
2024-03-08T12:46:07.537Z,0.62
2024-03-08T12:47:07.277Z,0.61
2024-03-08T12:48:07.121Z,0.68
2024-03-08T12:49:07.019Z,0.63
2024-03-08T12:50:06.921Z,0.56
2024-03-08T12:51:06.781Z,0.54
2024-03-08T12:52:06.686Z,0.53
2024-03-08T12:53:08.679Z,0.50
2024-03-08T12:54:08.177Z,0.50
2024-03-08T12:55:06.400Z,0.52
2024-03-08T12:56:06.420Z,0.52
2024-03-08T12:57:06.286Z,0.57
2024-03-08T12:58:06.434Z,0.67
2024-03-08T12:59:06.677Z,0.79
2024-03-08T13:00:06.813Z,0.77
2024-03-08T13:01:06.984Z,0.71
2024-03-08T13:02:07.184Z,0.65
2024-03-08T13:03:07.290Z,0.62
2024-03-08T13:04:07.416Z,0.58
2024-03-08T13:05:07.611Z,0.56
2024-03-08T13:06:07.668Z,0.54
2024-03-08T13:07:07.819Z,0.49
2024-03-08T13:08:08.066Z,0.51
2024-03-08T13:09:08.219Z,0.58
2024-03-08T13:10:08.301Z,0.63
2024-03-08T13:11:08.550Z,0.63
2024-03-08T13:12:08.689Z,0.63
2024-03-08T13:13:08.809Z,0.54
2024-03-08T13:14:09.057Z,0.55
2024-03-08T13:15:09.085Z,0.52
2024-03-08T13:16:09.207Z,0.52
2024-03-08T13:17:09.374Z,0.51
2024-03-08T13:18:09.510Z,0.52
2024-03-08T13:19:09.605Z,0.51
2024-03-08T13:20:09.716Z,0.49